sensor_id;sensor_type;location;lat;lon;timestamp;temperature;humidity
4566;DHT22;2295;51.050;14.608;2023-02-16T00:00:31;-1.00;99.90
4566;DHT22;2295;51.050;14.608;2023-02-16T00:06:28;-1.00;99.90
4566;DHT22;2295;51.050;14.608;2023-02-16T00:12:34;-1.00;99.90
4566;DHT22;2295;51.050;14.608;2023-02-16T00:15:29;-1.00;99.90
4566;DHT22;2295;51.050;14.608;2023-02-16T00:18:26;-0.90;99.90
4566;DHT22;2295;51.050;14.608;2023-02-16T00:21:30;-0.90;99.90
4566;DHT22;2295;51.050;14.608;2023-02-16T00:24:16;-1.00;99.90
4566;DHT22;2295;51.050;14.608;2023-02-16T00:26:57;-1.00;99.90
4566;DHT22;2295;51.050;14.608;2023-02-16T00:29:33;-1.00;99.90
4566;DHT22;2295;51.050;14.608;2023-02-16T00:32:11;-1.10;99.90
4566;DHT22;2295;51.050;14.608;2023-02-16T00:34:41;-1.10;99.90
4566;DHT22;2295;51.050;14.608;2023-02-16T00:37:13;-1.10;99.90
4566;DHT22;2295;51.050;14.608;2023-02-16T00:39:42;-1.10;99.90
4566;DHT22;2295;51.050;14.608;2023-02-16T00:42:22;-1.10;99.90
4566;DHT22;2295;51.050;14.608;2023-02-16T00:45:08;-1.10;99.90
4566;DHT22;2295;51.050;14.608;2023-02-16T00:48:02;-1.00;99.90
4566;DHT22;2295;51.050;14.608;2023-02-16T00:50:47;-1.00;99.90
4566;DHT22;2295;51.050;14.608;2023-02-16T00:53:58;-1.10;99.90
4566;DHT22;2295;51.050;14.608;2023-02-16T00:56:32;-1.00;99.90
4566;DHT22;2295;51.050;14.608;2023-02-16T00:59:06;-1.00;99.90
4566;DHT22;2295;51.050;14.608;2023-02-16T01:02:08;-1.10;99.90
4566;DHT22;2295;51.050;14.608;2023-02-16T01:04:53;-1.00;99.90
4566;DHT22;2295;51.050;14.608;2023-02-16T01:07:23;-1.00;99.90
4566;DHT22;2295;51.050;14.608;2023-02-16T01:10:17;-1.00;99.90
4566;DHT22;2295;51.050;14.608;2023-02-16T01:13:34;-1.00;99.90
4566;DHT22;2295;51.050;14.608;2023-02-16T01:16:20;-1.00;99.90
4566;DHT22;2295;51.050;14.608;2023-02-16T01:19:04;-1.00;99.90
4566;DHT22;2295;51.050;14.608;2023-02-16T01:21:40;-1.10;99.90
4566;DHT22;2295;51.050;14.608;2023-02-16T01:24:52;-1.10;99.90
4566;DHT22;2295;51.050;14.608;2023-02-16T01:27:38;-1.00;99.90
4566;DHT22;2295;51.050;14.608;2023-02-16T01:33:52;-1.00;99.90
4566;DHT22;2295;51.050;14.608;2023-02-16T01:37:05;-1.00;99.90
4566;DHT22;2295;51.050;14.608;2023-02-16T01:40:09;-1.00;99.90
4566;DHT22;2295;51.050;14.608;2023-02-16T01:43:30;-1.10;99.90
4566;DHT22;2295;51.050;14.608;2023-02-16T01:46:21;-1.10;99.90
4566;DHT22;2295;51.050;14.608;2023-02-16T01:49:11;-1.00;99.90
4566;DHT22;2295;51.050;14.608;2023-02-16T01:52:31;-1.00;99.90
4566;DHT22;2295;51.050;14.608;2023-02-16T01:55:48;-1.00;99.90
4566;DHT22;2295;51.050;14.608;2023-02-16T01:59:08;-1.00;99.90
4566;DHT22;2295;51.050;14.608;2023-02-16T02:09:18;-1.10;99.90
4566;DHT22;2295;51.050;14.608;2023-02-16T02:11:59;-1.20;99.90
4566;DHT22;2295;51.050;14.608;2023-02-16T02:14:36;-1.20;99.90
4566;DHT22;2295;51.050;14.608;2023-02-16T02:17:44;-1.20;99.90
4566;DHT22;2295;51.050;14.608;2023-02-16T02:20:22;-1.30;99.90
4566;DHT22;2295;51.050;14.608;2023-02-16T02:24:22;-1.30;99.90
4566;DHT22;2295;51.050;14.608;2023-02-16T02:27:12;-1.20;99.90
4566;DHT22;2295;51.050;14.608;2023-02-16T02:30:27;-1.30;99.90
4566;DHT22;2295;51.050;14.608;2023-02-16T02:36:14;-1.30;99.90
4566;DHT22;2295;51.050;14.608;2023-02-16T02:39:24;-1.30;99.90
4566;DHT22;2295;51.050;14.608;2023-02-16T02:42:19;-1.30;99.90
4566;DHT22;2295;51.050;14.608;2023-02-16T02:45:20;-1.30;99.90
4566;DHT22;2295;51.050;14.608;2023-02-16T02:48:16;-1.20;99.90
4566;DHT22;2295;51.050;14.608;2023-02-16T02:50:52;-1.20;99.90
4566;DHT22;2295;51.050;14.608;2023-02-16T02:54:01;-1.30;99.90
4566;DHT22;2295;51.050;14.608;2023-02-16T02:56:58;-1.40;99.90
4566;DHT22;2295;51.050;14.608;2023-02-16T03:00:02;-1.40;99.90
4566;DHT22;2295;51.050;14.608;2023-02-16T03:03:19;-1.40;99.90
4566;DHT22;2295;51.050;14.608;2023-02-16T03:06:06;-1.40;99.90
4566;DHT22;2295;51.050;14.608;2023-02-16T03:08:54;-1.30;99.90
4566;DHT22;2295;51.050;14.608;2023-02-16T03:11:41;-1.30;99.90
4566;DHT22;2295;51.050;14.608;2023-02-16T03:14:43;-1.30;99.90
4566;DHT22;2295;51.050;14.608;2023-02-16T03:17:32;-1.30;99.90
4566;DHT22;2295;51.050;14.608;2023-02-16T03:20:39;-1.30;99.90
4566;DHT22;2295;51.050;14.608;2023-02-16T03:23:31;-1.30;99.90
4566;DHT22;2295;51.050;14.608;2023-02-16T03:26:38;-1.30;99.90
4566;DHT22;2295;51.050;14.608;2023-02-16T03:30:07;-1.30;99.90
4566;DHT22;2295;51.050;14.608;2023-02-16T03:33:18;-1.30;99.90
4566;DHT22;2295;51.050;14.608;2023-02-16T03:35:55;-1.30;99.90
4566;DHT22;2295;51.050;14.608;2023-02-16T03:38:24;-1.40;99.90
4566;DHT22;2295;51.050;14.608;2023-02-16T03:40:59;-1.40;99.90
4566;DHT22;2295;51.050;14.608;2023-02-16T03:43:31;-1.50;99.90
4566;DHT22;2295;51.050;14.608;2023-02-16T03:46:05;-1.50;99.90
4566;DHT22;2295;51.050;14.608;2023-02-16T03:48:51;-1.50;99.90
4566;DHT22;2295;51.050;14.608;2023-02-16T03:54:20;-1.50;99.90
4566;DHT22;2295;51.050;14.608;2023-02-16T03:57:03;-1.50;99.90
4566;DHT22;2295;51.050;14.608;2023-02-16T03:59:48;-1.50;99.90
4566;DHT22;2295;51.050;14.608;2023-02-16T04:02:49;-1.50;99.90
4566;DHT22;2295;51.050;14.608;2023-02-16T04:35:06;-1.50;99.90
4566;DHT22;2295;51.050;14.608;2023-02-16T04:37:46;-1.50;99.90
4566;DHT22;2295;51.050;14.608;2023-02-16T04:40:33;-1.50;99.90
4566;DHT22;2295;51.050;14.608;2023-02-16T04:43:44;-1.50;99.90
4566;DHT22;2295;51.050;14.608;2023-02-16T04:46:30;-1.50;99.90
4566;DHT22;2295;51.050;14.608;2023-02-16T04:49:39;-1.50;99.90
4566;DHT22;2295;51.050;14.608;2023-02-16T04:53:14;-1.60;99.90
4566;DHT22;2295;51.050;14.608;2023-02-16T04:56:21;-1.50;99.90
4566;DHT22;2295;51.050;14.608;2023-02-16T04:59:10;-1.50;99.90
4566;DHT22;2295;51.050;14.608;2023-02-16T05:01:41;-1.60;99.90
4566;DHT22;2295;51.050;14.608;2023-02-16T05:04:38;-1.50;99.90
4566;DHT22;2295;51.050;14.608;2023-02-16T05:07:37;-1.50;99.90
4566;DHT22;2295;51.050;14.608;2023-02-16T05:10:22;-1.60;99.90
4566;DHT22;2295;51.050;14.608;2023-02-16T05:13:19;-1.60;99.90
4566;DHT22;2295;51.050;14.608;2023-02-16T05:16:24;-1.70;99.90
4566;DHT22;2295;51.050;14.608;2023-02-16T05:19:08;-1.60;99.90
4566;DHT22;2295;51.050;14.608;2023-02-16T05:21:44;-1.60;99.90
4566;DHT22;2295;51.050;14.608;2023-02-16T05:24:31;-1.60;99.90
4566;DHT22;2295;51.050;14.608;2023-02-16T05:27:30;-1.60;99.90
4566;DHT22;2295;51.050;14.608;2023-02-16T05:36:28;-1.70;99.90
4566;DHT22;2295;51.050;14.608;2023-02-16T05:39:30;-1.70;99.90
4566;DHT22;2295;51.050;14.608;2023-02-16T05:42:24;-1.70;99.90
4566;DHT22;2295;51.050;14.608;2023-02-16T05:44:59;-1.70;99.90
4566;DHT22;2295;51.050;14.608;2023-02-16T05:47:31;-1.80;99.90
4566;DHT22;2295;51.050;14.608;2023-02-16T05:50:07;-1.80;99.90
4566;DHT22;2295;51.050;14.608;2023-02-16T05:52:41;-1.80;99.90
4566;DHT22;2295;51.050;14.608;2023-02-16T05:55:22;-1.80;99.90
4566;DHT22;2295;51.050;14.608;2023-02-16T05:58:04;-1.80;99.90
4566;DHT22;2295;51.050;14.608;2023-02-16T06:01:04;-1.80;99.90
4566;DHT22;2295;51.050;14.608;2023-02-16T06:03:51;-1.80;99.90
4566;DHT22;2295;51.050;14.608;2023-02-16T06:06:24;-1.90;99.90
4566;DHT22;2295;51.050;14.608;2023-02-16T06:09:15;-1.90;99.90
4566;DHT22;2295;51.050;14.608;2023-02-16T06:12:01;-1.80;99.90
4566;DHT22;2295;51.050;14.608;2023-02-16T06:14:59;-1.80;99.90
4566;DHT22;2295;51.050;14.608;2023-02-16T06:17:46;-1.70;99.90
4566;DHT22;2295;51.050;14.608;2023-02-16T06:20:21;-1.70;99.90
4566;DHT22;2295;51.050;14.608;2023-02-16T06:23:12;-1.80;99.90
4566;DHT22;2295;51.050;14.608;2023-02-16T06:26:09;-1.70;99.90
4566;DHT22;2295;51.050;14.608;2023-02-16T06:28:50;-1.80;99.90
4566;DHT22;2295;51.050;14.608;2023-02-16T06:31:47;-1.70;99.90
4566;DHT22;2295;51.050;14.608;2023-02-16T06:34:22;-1.70;99.90
4566;DHT22;2295;51.050;14.608;2023-02-16T06:37:10;-1.70;99.90
4566;DHT22;2295;51.050;14.608;2023-02-16T06:39:51;-1.70;99.90
4566;DHT22;2295;51.050;14.608;2023-02-16T06:42:32;-1.70;99.90
4566;DHT22;2295;51.050;14.608;2023-02-16T06:45:29;-1.60;99.90
4566;DHT22;2295;51.050;14.608;2023-02-16T06:48:08;-1.60;99.90
4566;DHT22;2295;51.050;14.608;2023-02-16T06:50:44;-1.60;99.90
4566;DHT22;2295;51.050;14.608;2023-02-16T06:53:20;-1.50;99.90
4566;DHT22;2295;51.050;14.608;2023-02-16T06:55:56;-1.40;99.90
4566;DHT22;2295;51.050;14.608;2023-02-16T06:58:31;-1.40;99.90
4566;DHT22;2295;51.050;14.608;2023-02-16T07:01:04;-1.30;99.90
4566;DHT22;2295;51.050;14.608;2023-02-16T07:03:38;-1.30;99.90
4566;DHT22;2295;51.050;14.608;2023-02-16T07:06:14;-1.20;99.90
4566;DHT22;2295;51.050;14.608;2023-02-16T07:08:53;-1.10;99.90
4566;DHT22;2295;51.050;14.608;2023-02-16T07:11:41;-1.10;99.90
4566;DHT22;2295;51.050;14.608;2023-02-16T07:14:26;-1.10;99.90
4566;DHT22;2295;51.050;14.608;2023-02-16T07:16:57;-1.00;99.90
4566;DHT22;2295;51.050;14.608;2023-02-16T07:19:40;-0.90;99.90
4566;DHT22;2295;51.050;14.608;2023-02-16T07:22:19;-0.90;99.90
4566;DHT22;2295;51.050;14.608;2023-02-16T07:24:50;-0.90;99.90
4566;DHT22;2295;51.050;14.608;2023-02-16T07:27:29;-0.80;99.90
4566;DHT22;2295;51.050;14.608;2023-02-16T07:30:08;-0.70;99.90
4566;DHT22;2295;51.050;14.608;2023-02-16T07:32:40;-0.70;99.90
4566;DHT22;2295;51.050;14.608;2023-02-16T07:35:14;-0.70;99.90
4566;DHT22;2295;51.050;14.608;2023-02-16T07:37:43;-0.60;99.90
4566;DHT22;2295;51.050;14.608;2023-02-16T07:40:12;-0.50;99.90
4566;DHT22;2295;51.050;14.608;2023-02-16T07:42:41;-0.40;99.90
4566;DHT22;2295;51.050;14.608;2023-02-16T07:45:10;-0.30;99.90
4566;DHT22;2295;51.050;14.608;2023-02-16T07:47:39;-0.20;99.90
4566;DHT22;2295;51.050;14.608;2023-02-16T07:50:09;-0.10;99.90
4566;DHT22;2295;51.050;14.608;2023-02-16T07:52:38;-0.10;99.90
4566;DHT22;2295;51.050;14.608;2023-02-16T07:55:09;0.10;99.90
4566;DHT22;2295;51.050;14.608;2023-02-16T07:57:39;0.20;99.90
4566;DHT22;2295;51.050;14.608;2023-02-16T08:00:08;0.30;99.90
4566;DHT22;2295;51.050;14.608;2023-02-16T08:02:39;0.40;99.90
4566;DHT22;2295;51.050;14.608;2023-02-16T08:05:08;0.50;99.90
4566;DHT22;2295;51.050;14.608;2023-02-16T08:07:36;0.70;99.90
4566;DHT22;2295;51.050;14.608;2023-02-16T08:10:06;0.70;99.90
4566;DHT22;2295;51.050;14.608;2023-02-16T08:12:36;0.70;99.90
4566;DHT22;2295;51.050;14.608;2023-02-16T08:15:05;0.80;99.90
4566;DHT22;2295;51.050;14.608;2023-02-16T08:17:35;0.80;99.90
4566;DHT22;2295;51.050;14.608;2023-02-16T08:20:11;0.80;99.90
4566;DHT22;2295;51.050;14.608;2023-02-16T08:22:39;0.70;99.90
4566;DHT22;2295;51.050;14.608;2023-02-16T08:25:11;0.70;99.90
4566;DHT22;2295;51.050;14.608;2023-02-16T08:27:42;0.70;99.90
4566;DHT22;2295;51.050;14.608;2023-02-16T08:30:14;0.70;99.90
4566;DHT22;2295;51.050;14.608;2023-02-16T08:32:47;0.70;99.90
4566;DHT22;2295;51.050;14.608;2023-02-16T08:35:21;0.80;99.90
4566;DHT22;2295;51.050;14.608;2023-02-16T08:37:55;0.90;99.90
4566;DHT22;2295;51.050;14.608;2023-02-16T08:41:00;1.10;99.90
4566;DHT22;2295;51.050;14.608;2023-02-16T08:43:29;1.30;99.90
4566;DHT22;2295;51.050;14.608;2023-02-16T08:45:58;1.50;99.90
4566;DHT22;2295;51.050;14.608;2023-02-16T08:48:29;1.50;99.90
4566;DHT22;2295;51.050;14.608;2023-02-16T08:51:03;1.50;99.90
4566;DHT22;2295;51.050;14.608;2023-02-16T08:53:33;1.50;99.90
4566;DHT22;2295;51.050;14.608;2023-02-16T08:56:03;1.60;99.90
4566;DHT22;2295;51.050;14.608;2023-02-16T08:58:35;1.60;99.90
4566;DHT22;2295;51.050;14.608;2023-02-16T09:01:05;1.60;99.90
4566;DHT22;2295;51.050;14.608;2023-02-16T09:03:35;1.70;99.90
4566;DHT22;2295;51.050;14.608;2023-02-16T09:06:11;2.00;99.90
4566;DHT22;2295;51.050;14.608;2023-02-16T09:08:42;2.00;99.90
4566;DHT22;2295;51.050;14.608;2023-02-16T09:11:12;2.00;99.90
4566;DHT22;2295;51.050;14.608;2023-02-16T09:13:42;2.20;99.90
4566;DHT22;2295;51.050;14.608;2023-02-16T09:16:12;2.30;99.90
4566;DHT22;2295;51.050;14.608;2023-02-16T09:18:42;2.40;99.90
4566;DHT22;2295;51.050;14.608;2023-02-16T09:21:17;2.50;99.90
4566;DHT22;2295;51.050;14.608;2023-02-16T09:23:48;2.60;99.90
4566;DHT22;2295;51.050;14.608;2023-02-16T09:26:18;2.90;99.90
4566;DHT22;2295;51.050;14.608;2023-02-16T09:28:48;2.80;99.90
4566;DHT22;2295;51.050;14.608;2023-02-16T09:31:18;2.60;99.90
4566;DHT22;2295;51.050;14.608;2023-02-16T09:33:53;2.40;99.90
4566;DHT22;2295;51.050;14.608;2023-02-16T09:36:23;2.30;99.90
4566;DHT22;2295;51.050;14.608;2023-02-16T09:38:53;2.30;99.90
4566;DHT22;2295;51.050;14.608;2023-02-16T09:41:31;2.70;99.90
4566;DHT22;2295;51.050;14.608;2023-02-16T09:44:05;3.30;99.90
4566;DHT22;2295;51.050;14.608;2023-02-16T09:46:37;4.00;99.90
4566;DHT22;2295;51.050;14.608;2023-02-16T09:49:06;4.40;99.90
4566;DHT22;2295;51.050;14.608;2023-02-16T09:51:39;4.50;99.90
4566;DHT22;2295;51.050;14.608;2023-02-16T09:54:23;4.50;99.90
4566;DHT22;2295;51.050;14.608;2023-02-16T09:56:58;4.60;99.90
4566;DHT22;2295;51.050;14.608;2023-02-16T09:59:40;4.80;99.90
4566;DHT22;2295;51.050;14.608;2023-02-16T10:02:23;5.10;99.90
4566;DHT22;2295;51.050;14.608;2023-02-16T10:05:11;5.40;99.90
4566;DHT22;2295;51.050;14.608;2023-02-16T10:07:53;5.80;99.90
4566;DHT22;2295;51.050;14.608;2023-02-16T10:10:30;5.90;99.90
4566;DHT22;2295;51.050;14.608;2023-02-16T10:13:02;5.80;99.90
4566;DHT22;2295;51.050;14.608;2023-02-16T10:15:34;5.70;99.90
4566;DHT22;2295;51.050;14.608;2023-02-16T10:18:07;5.60;99.90
4566;DHT22;2295;51.050;14.608;2023-02-16T10:20:43;5.40;99.90
4566;DHT22;2295;51.050;14.608;2023-02-16T10:23:30;5.10;99.90
4566;DHT22;2295;51.050;14.608;2023-02-16T10:26:06;4.70;99.90
4566;DHT22;2295;51.050;14.608;2023-02-16T10:28:48;4.20;99.90
4566;DHT22;2295;51.050;14.608;2023-02-16T10:31:22;4.00;99.90
4566;DHT22;2295;51.050;14.608;2023-02-16T10:34:03;3.90;99.90
4566;DHT22;2295;51.050;14.608;2023-02-16T10:37:00;3.70;99.90
4566;DHT22;2295;51.050;14.608;2023-02-16T10:39:37;3.70;99.90
4566;DHT22;2295;51.050;14.608;2023-02-16T10:42:16;3.60;99.90
4566;DHT22;2295;51.050;14.608;2023-02-16T10:44:50;3.60;99.90
4566;DHT22;2295;51.050;14.608;2023-02-16T10:47:29;3.70;99.90
4566;DHT22;2295;51.050;14.608;2023-02-16T10:49:59;3.70;99.90
4566;DHT22;2295;51.050;14.608;2023-02-16T10:52:30;3.70;99.90
4566;DHT22;2295;51.050;14.608;2023-02-16T10:55:04;3.70;99.90
4566;DHT22;2295;51.050;14.608;2023-02-16T10:57:33;3.70;99.90
4566;DHT22;2295;51.050;14.608;2023-02-16T11:00:04;3.70;99.90
4566;DHT22;2295;51.050;14.608;2023-02-16T11:02:39;3.70;99.90
4566;DHT22;2295;51.050;14.608;2023-02-16T11:05:30;3.60;99.90
4566;DHT22;2295;51.050;14.608;2023-02-16T11:08:00;3.70;99.90
4566;DHT22;2295;51.050;14.608;2023-02-16T11:10:41;3.80;99.90
4566;DHT22;2295;51.050;14.608;2023-02-16T11:13:24;4.10;99.90
4566;DHT22;2295;51.050;14.608;2023-02-16T11:15:55;4.30;99.90
4566;DHT22;2295;51.050;14.608;2023-02-16T11:18:34;4.50;99.90
4566;DHT22;2295;51.050;14.608;2023-02-16T11:21:04;4.70;99.90
4566;DHT22;2295;51.050;14.608;2023-02-16T11:23:35;4.90;99.90
4566;DHT22;2295;51.050;14.608;2023-02-16T11:26:10;5.00;99.90
4566;DHT22;2295;51.050;14.608;2023-02-16T11:28:49;5.30;99.90
4566;DHT22;2295;51.050;14.608;2023-02-16T11:31:21;5.30;99.90
4566;DHT22;2295;51.050;14.608;2023-02-16T11:33:58;5.30;99.90
4566;DHT22;2295;51.050;14.608;2023-02-16T11:36:31;5.30;99.90
4566;DHT22;2295;51.050;14.608;2023-02-16T11:39:02;5.30;99.90
4566;DHT22;2295;51.050;14.608;2023-02-16T11:41:43;5.30;99.90
4566;DHT22;2295;51.050;14.608;2023-02-16T11:44:23;5.20;99.90
4566;DHT22;2295;51.050;14.608;2023-02-16T11:46:54;5.20;99.90
4566;DHT22;2295;51.050;14.608;2023-02-16T11:49:30;5.10;99.90
4566;DHT22;2295;51.050;14.608;2023-02-16T11:51:59;5.00;99.90
4566;DHT22;2295;51.050;14.608;2023-02-16T11:54:28;5.00;99.90
4566;DHT22;2295;51.050;14.608;2023-02-16T11:57:06;5.10;99.90
4566;DHT22;2295;51.050;14.608;2023-02-16T11:59:37;5.20;99.90
4566;DHT22;2295;51.050;14.608;2023-02-16T12:05:34;5.10;99.90
4566;DHT22;2295;51.050;14.608;2023-02-16T12:08:20;5.10;99.90
4566;DHT22;2295;51.050;14.608;2023-02-16T12:11:04;5.10;99.90
4566;DHT22;2295;51.050;14.608;2023-02-16T12:13:44;5.20;99.90
4566;DHT22;2295;51.050;14.608;2023-02-16T12:16:24;5.20;99.90
4566;DHT22;2295;51.050;14.608;2023-02-16T12:19:11;5.40;99.90
4566;DHT22;2295;51.050;14.608;2023-02-16T12:21:46;5.40;99.90
4566;DHT22;2295;51.050;14.608;2023-02-16T12:24:26;5.40;99.90
4566;DHT22;2295;51.050;14.608;2023-02-16T12:26:58;5.30;99.90
4566;DHT22;2295;51.050;14.608;2023-02-16T12:29:39;5.40;99.90
4566;DHT22;2295;51.050;14.608;2023-02-16T12:32:27;5.40;99.90
4566;DHT22;2295;51.050;14.608;2023-02-16T12:35:10;5.40;99.90
4566;DHT22;2295;51.050;14.608;2023-02-16T12:37:43;5.50;99.90
4566;DHT22;2295;51.050;14.608;2023-02-16T12:40:20;5.50;99.90
4566;DHT22;2295;51.050;14.608;2023-02-16T12:43:08;5.60;99.90
4566;DHT22;2295;51.050;14.608;2023-02-16T12:45:43;5.60;99.90
4566;DHT22;2295;51.050;14.608;2023-02-16T12:48:23;5.70;99.90
4566;DHT22;2295;51.050;14.608;2023-02-16T12:50:58;5.70;99.90
4566;DHT22;2295;51.050;14.608;2023-02-16T12:53:35;5.70;99.90
4566;DHT22;2295;51.050;14.608;2023-02-16T12:56:08;5.60;99.90
4566;DHT22;2295;51.050;14.608;2023-02-16T12:58:41;5.60;99.90
4566;DHT22;2295;51.050;14.608;2023-02-16T13:01:15;5.60;99.90
4566;DHT22;2295;51.050;14.608;2023-02-16T13:03:50;5.60;99.90
4566;DHT22;2295;51.050;14.608;2023-02-16T13:06:23;5.70;99.90
4566;DHT22;2295;51.050;14.608;2023-02-16T13:08:59;5.70;99.90
4566;DHT22;2295;51.050;14.608;2023-02-16T13:11:35;5.70;99.90
4566;DHT22;2295;51.050;14.608;2023-02-16T13:14:12;5.80;99.90
4566;DHT22;2295;51.050;14.608;2023-02-16T13:16:47;5.80;99.90
4566;DHT22;2295;51.050;14.608;2023-02-16T13:19:17;5.90;99.90
4566;DHT22;2295;51.050;14.608;2023-02-16T13:25:11;6.00;99.90
4566;DHT22;2295;51.050;14.608;2023-02-16T13:27:54;6.00;99.90
4566;DHT22;2295;51.050;14.608;2023-02-16T13:31:05;6.00;99.90
4566;DHT22;2295;51.050;14.608;2023-02-16T13:33:49;6.00;99.90
4566;DHT22;2295;51.050;14.608;2023-02-16T13:36:37;6.00;99.90
4566;DHT22;2295;51.050;14.608;2023-02-16T13:39:27;6.00;99.90
4566;DHT22;2295;51.050;14.608;2023-02-16T13:42:21;6.00;99.90
4566;DHT22;2295;51.050;14.608;2023-02-16T13:44:56;5.90;99.90
4566;DHT22;2295;51.050;14.608;2023-02-16T13:47:30;5.90;99.90
4566;DHT22;2295;51.050;14.608;2023-02-16T13:50:03;5.80;99.90
4566;DHT22;2295;51.050;14.608;2023-02-16T13:52:33;5.80;99.90
4566;DHT22;2295;51.050;14.608;2023-02-16T13:55:05;5.80;99.90
4566;DHT22;2295;51.050;14.608;2023-02-16T13:58:00;5.80;99.90
4566;DHT22;2295;51.050;14.608;2023-02-16T14:00:33;5.80;99.90
4566;DHT22;2295;51.050;14.608;2023-02-16T14:03:08;5.80;99.90
4566;DHT22;2295;51.050;14.608;2023-02-16T14:05:41;5.80;99.90
4566;DHT22;2295;51.050;14.608;2023-02-16T14:08:17;5.80;99.90
4566;DHT22;2295;51.050;14.608;2023-02-16T14:11:04;5.80;99.90
4566;DHT22;2295;51.050;14.608;2023-02-16T14:13:42;5.80;99.90
4566;DHT22;2295;51.050;14.608;2023-02-16T14:16:33;5.80;99.90
4566;DHT22;2295;51.050;14.608;2023-02-16T14:19:17;5.70;99.90
4566;DHT22;2295;51.050;14.608;2023-02-16T14:21:48;5.60;99.90
4566;DHT22;2295;51.050;14.608;2023-02-16T14:24:29;5.60;99.90
4566;DHT22;2295;51.050;14.608;2023-02-16T14:27:00;5.50;99.90
4566;DHT22;2295;51.050;14.608;2023-02-16T14:29:30;5.50;99.90
4566;DHT22;2295;51.050;14.608;2023-02-16T14:32:05;5.60;99.90
4566;DHT22;2295;51.050;14.608;2023-02-16T14:34:38;5.50;99.90
4566;DHT22;2295;51.050;14.608;2023-02-16T14:40:04;5.30;99.90
4566;DHT22;2295;51.050;14.608;2023-02-16T14:42:45;5.20;99.90
4566;DHT22;2295;51.050;14.608;2023-02-16T14:51:43;4.80;99.90
4566;DHT22;2295;51.050;14.608;2023-02-16T14:57:30;4.70;99.90
4566;DHT22;2295;51.050;14.608;2023-02-16T15:00:02;4.60;99.90
4566;DHT22;2295;51.050;14.608;2023-02-16T15:02:34;4.60;99.90
4566;DHT22;2295;51.050;14.608;2023-02-16T15:05:17;4.60;99.90
4566;DHT22;2295;51.050;14.608;2023-02-16T15:07:47;4.50;99.90
4566;DHT22;2295;51.050;14.608;2023-02-16T15:10:23;4.40;99.90
4566;DHT22;2295;51.050;14.608;2023-02-16T15:12:55;4.30;99.90
4566;DHT22;2295;51.050;14.608;2023-02-16T15:15:34;4.30;99.90
4566;DHT22;2295;51.050;14.608;2023-02-16T15:18:13;4.20;99.90
4566;DHT22;2295;51.050;14.608;2023-02-16T15:20:44;4.10;99.90
4566;DHT22;2295;51.050;14.608;2023-02-16T15:23:18;4.00;99.90
4566;DHT22;2295;51.050;14.608;2023-02-16T15:25:56;3.90;99.90
4566;DHT22;2295;51.050;14.608;2023-02-16T15:28:29;3.80;99.90
4566;DHT22;2295;51.050;14.608;2023-02-16T15:31:01;3.70;99.90
4566;DHT22;2295;51.050;14.608;2023-02-16T15:33:34;3.60;99.90
4566;DHT22;2295;51.050;14.608;2023-02-16T15:36:06;3.50;99.90
4566;DHT22;2295;51.050;14.608;2023-02-16T15:38:38;3.40;99.90
4566;DHT22;2295;51.050;14.608;2023-02-16T15:41:08;3.40;99.90
4566;DHT22;2295;51.050;14.608;2023-02-16T15:43:44;3.20;99.90
4566;DHT22;2295;51.050;14.608;2023-02-16T15:46:14;3.10;99.90
4566;DHT22;2295;51.050;14.608;2023-02-16T15:48:49;3.10;99.90
4566;DHT22;2295;51.050;14.608;2023-02-16T15:51:21;3.00;99.90
4566;DHT22;2295;51.050;14.608;2023-02-16T15:53:53;2.90;99.90
4566;DHT22;2295;51.050;14.608;2023-02-16T15:56:29;2.80;99.90
4566;DHT22;2295;51.050;14.608;2023-02-16T15:59:13;2.70;99.90
4566;DHT22;2295;51.050;14.608;2023-02-16T16:01:47;2.60;99.90
4566;DHT22;2295;51.050;14.608;2023-02-16T16:04:19;2.50;99.90
4566;DHT22;2295;51.050;14.608;2023-02-16T16:06:50;2.40;99.90
4566;DHT22;2295;51.050;14.608;2023-02-16T16:09:22;2.30;99.90
4566;DHT22;2295;51.050;14.608;2023-02-16T16:11:54;2.20;99.90
4566;DHT22;2295;51.050;14.608;2023-02-16T16:14:26;2.10;99.90
4566;DHT22;2295;51.050;14.608;2023-02-16T16:16:57;2.00;99.90
4566;DHT22;2295;51.050;14.608;2023-02-16T16:19:32;1.90;99.90
4566;DHT22;2295;51.050;14.608;2023-02-16T16:22:02;1.80;99.90
4566;DHT22;2295;51.050;14.608;2023-02-16T16:24:33;1.70;99.90
4566;DHT22;2295;51.050;14.608;2023-02-16T16:27:07;1.70;99.90
4566;DHT22;2295;51.050;14.608;2023-02-16T16:29:39;1.60;99.90
4566;DHT22;2295;51.050;14.608;2023-02-16T16:32:20;1.50;99.90
4566;DHT22;2295;51.050;14.608;2023-02-16T16:34:50;1.50;99.90
4566;DHT22;2295;51.050;14.608;2023-02-16T16:37:25;1.40;99.90
4566;DHT22;2295;51.050;14.608;2023-02-16T16:40:03;1.30;99.90
4566;DHT22;2295;51.050;14.608;2023-02-16T16:42:36;1.20;99.90
4566;DHT22;2295;51.050;14.608;2023-02-16T16:45:38;1.10;99.90
4566;DHT22;2295;51.050;14.608;2023-02-16T16:48:22;1.10;99.90
4566;DHT22;2295;51.050;14.608;2023-02-16T16:51:14;1.00;99.90
4566;DHT22;2295;51.050;14.608;2023-02-16T16:53:53;1.00;99.90
4566;DHT22;2295;51.050;14.608;2023-02-16T16:56:23;1.10;99.90
4566;DHT22;2295;51.050;14.608;2023-02-16T16:58:58;1.30;99.90
4566;DHT22;2295;51.050;14.608;2023-02-16T17:01:47;1.40;99.90
4566;DHT22;2295;51.050;14.608;2023-02-16T17:04:18;1.40;99.90
4566;DHT22;2295;51.050;14.608;2023-02-16T17:06:48;1.40;99.90
4566;DHT22;2295;51.050;14.608;2023-02-16T17:09:17;1.40;99.90
4566;DHT22;2295;51.050;14.608;2023-02-16T17:11:45;1.50;99.90
4566;DHT22;2295;51.050;14.608;2023-02-16T17:14:19;1.40;99.90
4566;DHT22;2295;51.050;14.608;2023-02-16T17:17:00;1.30;99.90
4566;DHT22;2295;51.050;14.608;2023-02-16T17:19:28;1.40;99.90
4566;DHT22;2295;51.050;14.608;2023-02-16T17:21:59;1.30;99.90
4566;DHT22;2295;51.050;14.608;2023-02-16T17:24:28;1.40;99.90
4566;DHT22;2295;51.050;14.608;2023-02-16T17:27:01;1.40;99.90
4566;DHT22;2295;51.050;14.608;2023-02-16T17:29:30;1.40;99.90
4566;DHT22;2295;51.050;14.608;2023-02-16T17:32:10;1.40;99.90
4566;DHT22;2295;51.050;14.608;2023-02-16T17:34:39;1.30;99.90
4566;DHT22;2295;51.050;14.608;2023-02-16T17:37:19;1.30;99.90
4566;DHT22;2295;51.050;14.608;2023-02-16T17:40:14;1.30;99.90
4566;DHT22;2295;51.050;14.608;2023-02-16T17:42:54;1.20;99.90
4566;DHT22;2295;51.050;14.608;2023-02-16T17:45:47;1.30;99.90
4566;DHT22;2295;51.050;14.608;2023-02-16T17:52:39;1.30;99.90
4566;DHT22;2295;51.050;14.608;2023-02-16T17:55:10;1.30;99.90
4566;DHT22;2295;51.050;14.608;2023-02-16T17:57:56;1.30;99.90
4566;DHT22;2295;51.050;14.608;2023-02-16T18:00:24;1.40;99.90
4566;DHT22;2295;51.050;14.608;2023-02-16T18:02:53;1.50;99.90
4566;DHT22;2295;51.050;14.608;2023-02-16T18:05:23;1.60;99.90
4566;DHT22;2295;51.050;14.608;2023-02-16T18:07:56;1.70;99.90
4566;DHT22;2295;51.050;14.608;2023-02-16T18:10:33;1.80;99.90
4566;DHT22;2295;51.050;14.608;2023-02-16T18:13:04;1.90;99.90
4566;DHT22;2295;51.050;14.608;2023-02-16T18:15:34;1.90;99.90
4566;DHT22;2295;51.050;14.608;2023-02-16T18:18:19;2.00;99.90
4566;DHT22;2295;51.050;14.608;2023-02-16T18:20:55;2.00;99.90
4566;DHT22;2295;51.050;14.608;2023-02-16T18:23:25;2.20;99.90
4566;DHT22;2295;51.050;14.608;2023-02-16T18:25:56;2.30;99.90
4566;DHT22;2295;51.050;14.608;2023-02-16T18:28:28;2.40;99.90
4566;DHT22;2295;51.050;14.608;2023-02-16T18:30:57;2.40;99.90
4566;DHT22;2295;51.050;14.608;2023-02-16T18:33:30;2.50;99.90
4566;DHT22;2295;51.050;14.608;2023-02-16T18:36:02;2.50;99.90
4566;DHT22;2295;51.050;14.608;2023-02-16T18:38:33;2.50;99.90
4566;DHT22;2295;51.050;14.608;2023-02-16T18:41:01;2.60;99.90